航空気象通報

ウインドサーファーのための航空気象通報による風予報です。

5/20-5/22の航空気象通報

2018年05月20日 23時00分32秒 | TAF
羽田空港
TAF RJTT 201108Z 2012/2118 18008KT 9999 FEW030
BECMG 2017/2019 34006KT
BECMG 2100/2103 08008KT
日本時間20日21時-21日02時:180度から8ノットの風
02-04時:風が変化
04-09時:340度から6ノットの風
09-12時:風が変化
12時-22日03時:080度から8ノットの風


静岡空港
TAF RJNS 201106Z 2012/2118 32004KT 9999 FEW030
BECMG 2022/2100 10008KT
BECMG 2112/2115 01004KT
日本時間20日21時-21日07時:320度から4ノットの風
07-09時:風が変化
09-21時:100度から8ノットの風
21-24時:風が変化
22日00-03時:010度から4ノットの風


福岡空港
TAF RJFF 201109Z 2012/2118 14008KT 9999 FEW030
日本時間20日21時-22日03時:140度から8ノットの風


那覇空港
TAF ROAH 201109Z 2012/2118 22010KT 9999 FEW008 BKN015
TEMPO 2021/2100 4000 TSRA SCT006 BKN010 FEW020CB
BECMG 2022/2100 30012KT
BECMG 2112/2115 01008KT
日本時間20日21時-21日07時:220度から10ノットの風
07-09時:風が変化
09-21時:300度から12ノットの風
21-24時:風が変化
22日00-03時:010度から8ノットの風

但し、20日06-09時の間:時々

石垣空港
TAF ROIG 201114Z 2012/2118 24004KT 9999 FEW010 SCT020
BECMG 2100/2103 34007KT
TEMPO 2100/2103 SHRA FEW008 BKN015 FEW020CB
日本時間20日21時-21日09時:240度から4ノットの風
09-12時:340度から7ノットの風
12時-22日03時:340度から7ノットの風

但し、21日09-12時の間:時々

マウイのカフルイ空港
PHOG 201126Z 2012/2112 05012KT P6SM FEW050
FM202000 05024G32KT P6SM SCT045
FM210600 06014G21KT P6SM FEW050 AMD LTD TO VIS AND WIND TIL 201600
ハワイ時間20日02-10時:050度から12ノットの風
10-20時:050度から24ノット、突風32ノット
20時-21日02時:060度から14ノット、突風21ノット


サイパン空港
PGSN 201120Z 2012/2112 06007KT P6SM VCSH FEW018 SCT050
マリアナ時間20日22時-21日22時:060度から7ノットの風
コメント
この記事をはてなブックマークに追加

5/19-5/21の航空気象通報

2018年05月19日 23時12分43秒 | TAF
羽田空港
TAF RJTT 191108Z 1912/2018 35020KT 9999 FEW030
TEMPO 1912/1918 35025G35KT
BECMG 2003/2006 12012KT
BECMG 2015/2018 35008KT
日本時間19日21時-20日12時:350度から20ノットの風
12-15時:風が変化
15-24時:120度から12ノットの風
21日00-03時:風が変化
03時:350度から8ノットの風


静岡空港
TAF RJNS 191109Z 1912/2018 25006KT 9999 FEW015 BKN025
BECMG 1921/1923 10008KT
BECMG 2009/2012 26006KT
日本時間19日21時-20日06時:250度から6ノットの風
06-08時:風が変化
08-18時:100度から8ノットの風
18-21時:風が変化
21時-21日03時:260度から6ノットの風


福岡空港
TAF RJFF 191108Z 1912/2018 03008KT 9999 FEW030 SCT040
BECMG 2000/2003 07010KT
BECMG 2006/2009 03008KT
BECMG 2012/2015 13006KT
日本時間19日21時-20日09時:030度から8ノットの風
09-12時:風が変化
12-15時:070度から10ノットの風
15-18時:風が変化
18-21時:030度から8ノットの風
21-24時:風が変化
21日00-03時:130度から6ノットの風


那覇空港
TAF ROAH 191105Z 1912/2018 20004KT 9999 FEW010 SCT020
日本時間19日21時-21日03時:200度から4ノットの風


石垣空港
TAF ROIG 191107Z 1912/2018 18004KT 9999 FEW015 SCT025
日本時間19日21時-21日03時:180度から4ノットの風


マウイのカフルイ空港
PHOG 191135Z 1912/2012 05014KT P6SM FEW025 SCT040
FM192000 05023G33KT P6SM SCT040
FM200500 05018G25KT P6SM FEW025 SCT040 AMD LTD TO VIS AND WIND TIL 191600
ハワイ時間19日02-10時:050度から14ノットの風
10-19時:050度から23ノット、突風33ノット
19時-20日02時:050度から18ノット、突風25ノット


サイパン空港
PGSN 191120Z 1912/2012 09010KT P6SM VCSH SCT018 SCT030
マリアナ時間19日22時-20日22時:090度から10ノットの風

コメント
この記事をはてなブックマークに追加

5/12-5/14の航空気象通報

2018年05月12日 21時14分23秒 | TAF
羽田空港
TAF RJTT 121105Z 1212/1318 21016KT 9999 FEW030
TEMPO 1218/1303 21020G30KT
TEMPO 1306/1309 3000 SHRA BR FEW005 BKN008
BECMG 1306/1309 34006KT
TEMPO 1309/1312 2000 +SHRA BR FEW003 BKN005
TEMPO 1312/1318 4000 -SHRA BR FEW005 BKN008
日本時間12日21時-13日15時:210度から16ノットの風
但し、13日03-12時の間:時々210度から20ノット、突風30ノット
15-18時:風が変化
18時-14日03時:340度から6ノットの風

但し、13日15時-14日03時の間:時々

静岡空港
TAF RJNS 121106Z 1212/1318 28005KT 9999 FEW015 SCT030
BECMG 1300/1303 14006KT
TEMPO 1303/1306 3000 SHRA BR FEW005 BKN008
BECMG 1306/1309 24014KT
TEMPO 1306/1309 24018G28KT 1500 +SHRA BR FEW003 BKN005
TEMPO 1309/1315 3000 SHRA BR FEW003 BKN005
日本時間12日21時-13日09時:280度から5ノットの風
09-12時:風が変化
12-15時:140度から6ノットの風
15-18時:風が変化
18時-14日03時:240度から14ノットの風
但し、13日15-18時の間:時々240度から18ノット、突風28ノット

但し、13日12-24時の間:時々

福岡空港
TAF RJFF 121105Z 1212/1318 15011KT 9999 FEW030
TEMPO 1300/1309 4000 SHRA BR FEW005 BKN008 BKN010
BECMG 1306/1309 31006KT
TEMPO 1309/1312 FEW005 BKN008 BKN010
日本時間12日21時-13日15時:150度から11ノットの風
15-18時:風が変化
18時-14日03時:310度から6ノットの風

但し、13日09-18時の間:時々
但し、13日18-21時の間:時々

那覇空港
TAF ROAH 121105Z 1212/1318 31006KT 9999 SCT008 BKN015
TEMPO 1212/1216 FEW005 BKN008 BKN012
BECMG 1216/1218 24005KT
TEMPO 1216/1300 FEW003 BKN005 BKN010
日本時間12日21時-13日01時:310度から6ノットの風
01-03時:風が変化
03時-14日03時:240度から5ノットの風


石垣空港
TAF ROIG 121109Z 1212/1318 21004KT 9999 FEW008 SCT015
日本時間12日21時-14日03時:210度から4ノットの風


マウイのカフルイ空港
PHOG 121124Z 1212/1312 05010KT P6SM FEW030 SCT060
FM122000 04018G25KT P6SM FEW025 SCT060
FM130400 04014KT P6SM FEW020 SCT060 AMD LTD TO VIS AND WIND TIL 121600
ハワイ時間12日02-10時:050度から10ノットの風
10-18時:040度から18ノット、突風25ノット
18時-13日02時:040度から14ノットの風


サイパン空港
PGSN 121129Z 1212/1312 34005KT P6SM VCSH FEW018 FEW050
マリアナ時間12日22時-13日22時:340度から5ノットの風

コメント
この記事をはてなブックマークに追加

5/11-5/13の航空気象通報

2018年05月11日 23時52分48秒 | TAF
羽田空港
TAF RJTT 111105Z 1112/1218 21016KT 9999 FEW030
BECMG 1115/1117 25006KT
BECMG 1120/1122 20006KT
BECMG 1200/1203 18018KT
日本時間11日21-24時:210度から16ノットの風
12日00-02時:風が変化
02-05時:250度から6ノットの風
05-07時:風が変化
07-09時:200度から6ノットの風
09-12時:風が変化
12時-13日03時:180度から18ノットの風


静岡空港
TAF RJNS 111105Z 1112/1218 30004KT 9999 FEW030
BECMG 1200/1203 24015KT
BECMG 1209/1212 30005KT
日本時間11日21時-12日09時:300度から4ノットの風
09-12時:風が変化
12-18時:240度から15ノットの風
18-21時:風が変化
21時-13日03時:300度から5ノットの風


福岡空港
TAF RJFF 111105Z 1112/1218 15005KT CAVOK
BECMG 1121/1123 15015KT
BECMG 1203/1206 32010KT
BECMG 1209/1212 15005KT
日本時間11日21時-12日06時:150度から5ノットの風
06-08時:風が変化
08-12時:150度から15ノットの風
12-15時:風が変化
15-18時:320度から10ノットの風
18-21時:風が変化
21時-13日03時:150度から5ノットの風


那覇空港
TAF ROAH 111105Z 1112/1218 10011KT 9999 FEW010 BKN020
BECMG 1115/1117 06010KT
BECMG 1209/1212 14005KT
TEMPO 1212/1215 FEW005 BKN008
TEMPO 1215/1218 FEW003 BKN005
日本時間11日21-24時:100度から11ノットの風
12日00-02時:風が変化
02-18時:060度から10ノットの風
18-21時:風が変化
21時-13日03時:140度から5ノットの風


石垣空港
TAF ROIG 111108Z 1112/1218 08008KT 9999 FEW010 SCT025
BECMG 1212/1215 16004KT
日本時間11日21時-12日21時:080度から8ノットの風
21-24時:風が変化
13日00-03時:160度から4ノットの風


マウイのカフルイ空港
PHOG 111345Z 1114/1212 VRB06KT P6SM SCT025 BKN080
FM112000 04012KT P6SM FEW025 SCT050
FM120600 06007KT P6SM FEW030 SCT050 AMD LTD TO VIS AND WIND TIL 111600
ハワイ時間11日02-10時:040度から12ノットの風

10-18時:040度から12ノットの風
18時-12日02時:060度から7ノットの風


サイパン空港
PGSN 111126Z 1112/1212 02005KT P6SM FEW022
マリアナ時間11日22時-12日22時:020度から5ノットの風
コメント
この記事をはてなブックマークに追加

5/8-5/10の航空気象通報

2018年05月08日 23時45分25秒 | TAF
羽田空港
TAF RJTT 081105Z 0812/0918 03016KT 8000 -RA FEW008 BKN012
TEMPO 0812/0818 4000 RA BR FEW005 BKN008
TEMPO 0818/0900 01024G34KT 3000 +SHRA BR FEW003 BKN005
TEMPO 0900/0903 01022G32KT
日本時間8日21時-9日03時:030度から16ノットの風
但し、9日03-09時の間:時々010度から24ノット、突風34ノット
但し、9日09-12時:010度から22ノット、突風32ノット


静岡空港
TAF RJNS 081106Z 0812/0918 05008KT 8000 -RA FEW008 BKN012
BECMG 0812/0814 4000 -RA BR FEW002 BKN008
TEMPO 0813/0819 2000 +RA BR FEW002 BKN004
TEMPO 0819/0822 3000 RA BR
BECMG 0822/0900 9999 NSW FEW015 BKN040
BECMG 0909/0912 35004KT
日本時間8日21時-9日18時:050度から8ノットの風
18-21時:風が変化
21時-10日03時:350度から4ノットの風
、8日07-09時の後、

福岡空港
TAF RJFF 081111Z 0812/0918 01011KT 9999 FEW010 BKN020
日本時間8日21時-10日03時:010度から11ノットの風


那覇空港
TAF ROAH 081105Z 0812/0918 33010KT 9999 FEW010 BKN020
日本時間8日21時-10日03時:330度から10ノットの風


石垣空港
TAF ROIG 081108Z 0812/0918 01010KT 9999 FEW015 BKN025
日本時間8日21時-10日03時:010度から10ノットの風


マウイのカフルイ空港
PHOG 081142Z 0812/0912 04012KT P6SM VCSH SCT025 BKN035
TEMPO 0812/0816 -SHRA BKN025
FM082000 05017G25KT P6SM VCSH SCT025 BKN040
FM090400 05010KT P6SM VCSH SCT030 BKN045 AMD LTD TO VIS AND WIND TIL 081600
ハワイ時間8日02-10時:040度から12ノットの風
10-18時:050度から17ノット、突風25ノット
18時-9日02時:050度から10ノットの風

但し、8日02-06時の間:時々

サイパン空港
PGSN 081120Z 0812/0912 07012KT P6SM SCT015
マリアナ時間8日22時-9日22時:070度から12ノットの風
コメント
この記事をはてなブックマークに追加